الصفحة الرئيسية
METAR-TAF:

METAR-TAF

مطار :

لانكاوي, ماليزيا

دائرة عرض: 06-20N, خط طول: 099-44E, ارتفاع: 8 متر

مراقبة الطقس الحالي

تاريخ ووقت الإصدار 1ساعة و 12 دقيقة قبل الساعة 17:00UTC
ريح 5 عقدة من الشرق, الاتجاه يتراوح بين الشمال الشرقي و الجنوب الشرقي
درجة الحرارة 27°درجة مئوية
الرطوبة 84%
ضغط 1010 hPa
الرؤية 10 كم أو أكثر
غيوم قليلة على ارتفاع 2600 قدم

METAR: WMKL 051700Z 10005KT 050V130 9999 FEW026 27/24 Q1010

زمن: 02:12 (18:12 UTC)

توقعات

تاريخ ووقت الإصدار 1ساعة و 12 دقيقة قبل الساعة 17:00UTC
التوقعات صالحة من05 الساعة 18 UTC إلى 06 الساعة 18 UTC
ريح 2 عقدةمن اتجاهات متغيرة
الرؤية 10 كم أو أكثر
غيوم قليلة على ارتفاع 1700 قدم, مزنة ركامية.
غيوم متفرقة على ارتفاع 2600 قدم
أصبح
من 06 الساعة 04 UTC إلى 06 الساعة 06 UTC
ريح 6 عقدة من الغرب/الجنوب الغربي
غيوم قليلة على ارتفاع 2000 قدم

TAF: WMKL 051700Z 0518/0618 VRB02KT 9999 FEW017CB SCT026 BECMG 0604/0606 25006KT FEW020

أرصاد الطقس والتوقعات من أكثر من 4000 مطار (تقارير الطقس للمطار METAR والتنبؤ بالطقس بالمطارTAF).

المحطات المتاحة هي النقط الصفراء والحمراء على الخريطة.

حرك المؤشر فوق النقطة لمعرفة اسم المحطة.

ثم انقر لمعرفة أرصاد وتوقعات الطقس.

لتغيير الخارطة: اضغط على الأزرار الخضراء مع رمز الصليب الأسود للتكبير. على الزر الأخضر مع شرطة للتصغير، أو على الأسهم الخضراء للخرائط المجاورة.


METAR-TAF: